sensor_id;sensor_type;location;lat;lon;timestamp;P1;durP1;ratioP1;P2;durP2;ratioP2
25437;SDS011;13364;49.084;9.978;2023-01-05T00:02:04;0.50;;;0.45;;
25437;SDS011;13364;49.084;9.978;2023-01-05T00:04:33;0.82;;;0.70;;
25437;SDS011;13364;49.084;9.978;2023-01-05T00:07:01;0.88;;;0.50;;
25437;SDS011;13364;49.084;9.978;2023-01-05T00:09:28;0.88;;;0.65;;
25437;SDS011;13364;49.084;9.978;2023-01-05T00:11:55;0.55;;;0.50;;
25437;SDS011;13364;49.084;9.978;2023-01-05T00:14:40;0.35;;;0.35;;
25437;SDS011;13364;49.084;9.978;2023-01-05T00:17:26;1.25;;;0.55;;
25437;SDS011;13364;49.084;9.978;2023-01-05T00:20:13;0.60;;;0.30;;
25437;SDS011;13364;49.084;9.978;2023-01-05T00:23:01;0.45;;;0.43;;
25437;SDS011;13364;49.084;9.978;2023-01-05T00:25:30;0.90;;;0.68;;
25437;SDS011;13364;49.084;9.978;2023-01-05T00:27:59;1.77;;;0.57;;
25437;SDS011;13364;49.084;9.978;2023-01-05T00:30:40;2.53;;;0.60;;
25437;SDS011;13364;49.084;9.978;2023-01-05T00:33:09;0.40;;;0.40;;
25437;SDS011;13364;49.084;9.978;2023-01-05T00:35:37;0.10;;;0.10;;
25437;SDS011;13364;49.084;9.978;2023-01-05T00:38:05;1.27;;;0.35;;
25437;SDS011;13364;49.084;9.978;2023-01-05T00:40:34;2.13;;;0.50;;
25437;SDS011;13364;49.084;9.978;2023-01-05T00:43:02;1.35;;;0.60;;
25437;SDS011;13364;49.084;9.978;2023-01-05T00:45:30;0.82;;;0.40;;
25437;SDS011;13364;49.084;9.978;2023-01-05T00:47:57;0.57;;;0.52;;
25437;SDS011;13364;49.084;9.978;2023-01-05T00:50:24;0.50;;;0.50;;
25437;SDS011;13364;49.084;9.978;2023-01-05T00:52:52;0.70;;;0.45;;
25437;SDS011;13364;49.084;9.978;2023-01-05T00:55:19;0.55;;;0.50;;
25437;SDS011;13364;49.084;9.978;2023-01-05T00:57:46;0.50;;;0.50;;
25437;SDS011;13364;49.084;9.978;2023-01-05T01:00:15;0.70;;;0.52;;
25437;SDS011;13364;49.084;9.978;2023-01-05T01:02:44;0.30;;;0.30;;
25437;SDS011;13364;49.084;9.978;2023-01-05T01:05:11;0.57;;;0.40;;
25437;SDS011;13364;49.084;9.978;2023-01-05T01:07:40;0.37;;;0.37;;
25437;SDS011;13364;49.084;9.978;2023-01-05T01:12:38;1.15;;;0.50;;
25437;SDS011;13364;49.084;9.978;2023-01-05T01:15:31;0.52;;;0.30;;
25437;SDS011;13364;49.084;9.978;2023-01-05T01:17:59;0.60;;;0.50;;
25437;SDS011;13364;49.084;9.978;2023-01-05T01:20:27;0.50;;;0.40;;
25437;SDS011;13364;49.084;9.978;2023-01-05T01:22:55;1.85;;;0.40;;
25437;SDS011;13364;49.084;9.978;2023-01-05T01:25:27;0.60;;;0.30;;
25437;SDS011;13364;49.084;9.978;2023-01-05T01:27:55;0.40;;;0.40;;
25437;SDS011;13364;49.084;9.978;2023-01-05T01:30:24;0.40;;;0.40;;
25437;SDS011;13364;49.084;9.978;2023-01-05T01:32:52;0.50;;;0.50;;
25437;SDS011;13364;49.084;9.978;2023-01-05T01:35:19;0.38;;;0.38;;
25437;SDS011;13364;49.084;9.978;2023-01-05T01:37:47;3.13;;;0.57;;
25437;SDS011;13364;49.084;9.978;2023-01-05T01:40:15;0.40;;;0.40;;
25437;SDS011;13364;49.084;9.978;2023-01-05T01:42:43;0.40;;;0.40;;
25437;SDS011;13364;49.084;9.978;2023-01-05T01:47:55;0.68;;;0.40;;
25437;SDS011;13364;49.084;9.978;2023-01-05T01:50:46;1.00;;;0.40;;
25437;SDS011;13364;49.084;9.978;2023-01-05T02:00:13;1.88;;;0.47;;
25437;SDS011;13364;49.084;9.978;2023-01-05T02:02:50;0.40;;;0.40;;
25437;SDS011;13364;49.084;9.978;2023-01-05T02:05:23;0.25;;;0.25;;
25437;SDS011;13364;49.084;9.978;2023-01-05T02:07:57;0.30;;;0.30;;
25437;SDS011;13364;49.084;9.978;2023-01-05T02:13:35;1.00;;;0.30;;
25437;SDS011;13364;49.084;9.978;2023-01-05T02:16:23;0.75;;;0.65;;
25437;SDS011;13364;49.084;9.978;2023-01-05T02:31:16;0.30;;;0.30;;
25437;SDS011;13364;49.084;9.978;2023-01-05T02:42:14;0.35;;;0.35;;
25437;SDS011;13364;49.084;9.978;2023-01-05T02:45:13;0.30;;;0.25;;
25437;SDS011;13364;49.084;9.978;2023-01-05T02:47:43;0.15;;;0.15;;
25437;SDS011;13364;49.084;9.978;2023-01-05T02:50:55;0.30;;;0.22;;
25437;SDS011;13364;49.084;9.978;2023-01-05T02:53:32;0.70;;;0.32;;
25437;SDS011;13364;49.084;9.978;2023-01-05T02:56:07;1.48;;;0.40;;
25437;SDS011;13364;49.084;9.978;2023-01-05T03:01:45;0.32;;;0.32;;
25437;SDS011;13364;49.084;9.978;2023-01-05T03:04:35;0.35;;;0.35;;
25437;SDS011;13364;49.084;9.978;2023-01-05T03:07:06;0.40;;;0.40;;
25437;SDS011;13364;49.084;9.978;2023-01-05T03:10:20;1.50;;;0.55;;
25437;SDS011;13364;49.084;9.978;2023-01-05T03:13:20;0.30;;;0.30;;
25437;SDS011;13364;49.084;9.978;2023-01-05T03:16:20;0.40;;;0.40;;
25437;SDS011;13364;49.084;9.978;2023-01-05T03:18:53;0.60;;;0.30;;
25437;SDS011;13364;49.084;9.978;2023-01-05T03:21:45;0.60;;;0.60;;
25437;SDS011;13364;49.084;9.978;2023-01-05T03:24:38;0.40;;;0.40;;
25437;SDS011;13364;49.084;9.978;2023-01-05T03:27:29;0.40;;;0.30;;
25437;SDS011;13364;49.084;9.978;2023-01-05T03:30:20;1.55;;;0.40;;
25437;SDS011;13364;49.084;9.978;2023-01-05T03:33:28;0.63;;;0.50;;
25437;SDS011;13364;49.084;9.978;2023-01-05T03:36:22;0.80;;;0.60;;
25437;SDS011;13364;49.084;9.978;2023-01-05T03:38:54;0.50;;;0.50;;
25437;SDS011;13364;49.084;9.978;2023-01-05T03:41:28;0.60;;;0.60;;
25437;SDS011;13364;49.084;9.978;2023-01-05T03:43:57;0.52;;;0.52;;
25437;SDS011;13364;49.084;9.978;2023-01-05T03:46:30;0.40;;;0.40;;
25437;SDS011;13364;49.084;9.978;2023-01-05T03:48:58;0.63;;;0.63;;
25437;SDS011;13364;49.084;9.978;2023-01-05T03:51:26;3.72;;;0.60;;
25437;SDS011;13364;49.084;9.978;2023-01-05T03:53:55;0.60;;;0.60;;
25437;SDS011;13364;49.084;9.978;2023-01-05T03:56:23;1.75;;;0.38;;
25437;SDS011;13364;49.084;9.978;2023-01-05T03:58:54;0.40;;;0.40;;
25437;SDS011;13364;49.084;9.978;2023-01-05T04:01:22;0.50;;;0.50;;
25437;SDS011;13364;49.084;9.978;2023-01-05T04:03:52;0.40;;;0.40;;
25437;SDS011;13364;49.084;9.978;2023-01-05T04:06:19;0.30;;;0.30;;
25437;SDS011;13364;49.084;9.978;2023-01-05T04:08:46;0.40;;;0.40;;
25437;SDS011;13364;49.084;9.978;2023-01-05T04:11:15;0.40;;;0.40;;
25437;SDS011;13364;49.084;9.978;2023-01-05T04:13:53;0.22;;;0.17;;
25437;SDS011;13364;49.084;9.978;2023-01-05T04:16:22;0.40;;;0.40;;
25437;SDS011;13364;49.084;9.978;2023-01-05T04:18:54;2.88;;;0.70;;
25437;SDS011;13364;49.084;9.978;2023-01-05T04:21:22;0.40;;;0.40;;
25437;SDS011;13364;49.084;9.978;2023-01-05T04:23:52;0.40;;;0.40;;
25437;SDS011;13364;49.084;9.978;2023-01-05T04:26:21;0.20;;;0.20;;
25437;SDS011;13364;49.084;9.978;2023-01-05T04:28:49;0.40;;;0.40;;
25437;SDS011;13364;49.084;9.978;2023-01-05T04:31:22;0.50;;;0.50;;
25437;SDS011;13364;49.084;9.978;2023-01-05T04:33:52;0.40;;;0.40;;
25437;SDS011;13364;49.084;9.978;2023-01-05T04:38:52;0.45;;;0.30;;
25437;SDS011;13364;49.084;9.978;2023-01-05T04:41:20;0.93;;;0.30;;
25437;SDS011;13364;49.084;9.978;2023-01-05T04:43:50;0.50;;;0.30;;
25437;SDS011;13364;49.084;9.978;2023-01-05T04:46:19;0.40;;;0.35;;
25437;SDS011;13364;49.084;9.978;2023-01-05T04:48:51;0.30;;;0.30;;
25437;SDS011;13364;49.084;9.978;2023-01-05T04:51:20;2.20;;;0.50;;
25437;SDS011;13364;49.084;9.978;2023-01-05T04:53:47;0.68;;;0.30;;
25437;SDS011;13364;49.084;9.978;2023-01-05T05:00:47;0.52;;;0.50;;
25437;SDS011;13364;49.084;9.978;2023-01-05T05:03:16;0.20;;;0.10;;
25437;SDS011;13364;49.084;9.978;2023-01-05T05:05:43;0.68;;;0.17;;
25437;SDS011;13364;49.084;9.978;2023-01-05T05:08:13;0.70;;;0.43;;
25437;SDS011;13364;49.084;9.978;2023-01-05T05:10:42;0.30;;;0.30;;
25437;SDS011;13364;49.084;9.978;2023-01-05T05:13:10;0.70;;;0.30;;
25437;SDS011;13364;49.084;9.978;2023-01-05T05:15:37;0.30;;;0.30;;
25437;SDS011;13364;49.084;9.978;2023-01-05T05:18:06;0.25;;;0.25;;
25437;SDS011;13364;49.084;9.978;2023-01-05T05:20:37;0.20;;;0.20;;
25437;SDS011;13364;49.084;9.978;2023-01-05T05:23:08;0.38;;;0.35;;
25437;SDS011;13364;49.084;9.978;2023-01-05T05:25:35;0.13;;;0.13;;
25437;SDS011;13364;49.084;9.978;2023-01-05T05:28:02;0.30;;;0.30;;
25437;SDS011;13364;49.084;9.978;2023-01-05T05:30:29;0.40;;;0.28;;
25437;SDS011;13364;49.084;9.978;2023-01-05T05:32:58;1.95;;;0.30;;
25437;SDS011;13364;49.084;9.978;2023-01-05T05:35:27;2.47;;;0.40;;
25437;SDS011;13364;49.084;9.978;2023-01-05T05:37:54;0.63;;;0.40;;
25437;SDS011;13364;49.084;9.978;2023-01-05T05:40:22;0.93;;;0.40;;
25437;SDS011;13364;49.084;9.978;2023-01-05T05:42:53;0.77;;;0.50;;
25437;SDS011;13364;49.084;9.978;2023-01-05T05:45:23;1.75;;;0.60;;
25437;SDS011;13364;49.084;9.978;2023-01-05T05:47:52;0.40;;;0.40;;
25437;SDS011;13364;49.084;9.978;2023-01-05T05:50:23;0.60;;;0.60;;
25437;SDS011;13364;49.084;9.978;2023-01-05T05:52:51;1.55;;;0.70;;
25437;SDS011;13364;49.084;9.978;2023-01-05T05:55:18;1.10;;;0.70;;
25437;SDS011;13364;49.084;9.978;2023-01-05T05:57:46;0.55;;;0.55;;
25437;SDS011;13364;49.084;9.978;2023-01-05T06:00:15;0.52;;;0.52;;
25437;SDS011;13364;49.084;9.978;2023-01-05T06:02:46;0.57;;;0.57;;
25437;SDS011;13364;49.084;9.978;2023-01-05T06:05:15;0.82;;;0.63;;
25437;SDS011;13364;49.084;9.978;2023-01-05T06:10:14;0.70;;;0.70;;
25437;SDS011;13364;49.084;9.978;2023-01-05T06:12:43;3.30;;;0.80;;
25437;SDS011;13364;49.084;9.978;2023-01-05T06:15:11;0.98;;;0.63;;
25437;SDS011;13364;49.084;9.978;2023-01-05T06:17:39;0.60;;;0.50;;
25437;SDS011;13364;49.084;9.978;2023-01-05T06:20:06;1.45;;;0.75;;
25437;SDS011;13364;49.084;9.978;2023-01-05T06:22:34;1.75;;;1.15;;
25437;SDS011;13364;49.084;9.978;2023-01-05T06:25:03;2.25;;;0.85;;
25437;SDS011;13364;49.084;9.978;2023-01-05T06:27:30;3.05;;;1.13;;
25437;SDS011;13364;49.084;9.978;2023-01-05T06:29:57;7.57;;;1.48;;
25437;SDS011;13364;49.084;9.978;2023-01-05T06:32:24;5.97;;;1.40;;
25437;SDS011;13364;49.084;9.978;2023-01-05T06:34:51;2.17;;;0.73;;
25437;SDS011;13364;49.084;9.978;2023-01-05T06:37:18;7.82;;;1.20;;
25437;SDS011;13364;49.084;9.978;2023-01-05T06:39:46;9.48;;;1.50;;
25437;SDS011;13364;49.084;9.978;2023-01-05T06:42:13;3.55;;;1.10;;
25437;SDS011;13364;49.084;9.978;2023-01-05T06:44:45;8.48;;;1.52;;
25437;SDS011;13364;49.084;9.978;2023-01-05T06:47:12;2.15;;;1.15;;
25437;SDS011;13364;49.084;9.978;2023-01-05T06:49:39;6.30;;;1.50;;
25437;SDS011;13364;49.084;9.978;2023-01-05T06:52:06;4.25;;;0.93;;
25437;SDS011;13364;49.084;9.978;2023-01-05T06:54:41;6.70;;;1.50;;
25437;SDS011;13364;49.084;9.978;2023-01-05T06:57:08;7.32;;;1.55;;
25437;SDS011;13364;49.084;9.978;2023-01-05T06:59:36;4.32;;;0.80;;
25437;SDS011;13364;49.084;9.978;2023-01-05T07:02:03;5.65;;;1.30;;
25437;SDS011;13364;49.084;9.978;2023-01-05T07:04:30;4.45;;;1.42;;
25437;SDS011;13364;49.084;9.978;2023-01-05T07:06:57;5.75;;;1.40;;
25437;SDS011;13364;49.084;9.978;2023-01-05T07:09:24;8.80;;;1.20;;
25437;SDS011;13364;49.084;9.978;2023-01-05T07:11:51;4.55;;;1.00;;
25437;SDS011;13364;49.084;9.978;2023-01-05T07:14:18;5.82;;;1.58;;
25437;SDS011;13364;49.084;9.978;2023-01-05T07:16:45;5.43;;;1.30;;
25437;SDS011;13364;49.084;9.978;2023-01-05T07:19:12;4.32;;;1.02;;
25437;SDS011;13364;49.084;9.978;2023-01-05T07:24:34;9.63;;;1.42;;
25437;SDS011;13364;49.084;9.978;2023-01-05T07:27:01;8.13;;;1.58;;
25437;SDS011;13364;49.084;9.978;2023-01-05T07:29:34;4.80;;;1.73;;
25437;SDS011;13364;49.084;9.978;2023-01-05T07:32:02;10.98;;;1.77;;
25437;SDS011;13364;49.084;9.978;2023-01-05T07:34:29;7.30;;;1.52;;
25437;SDS011;13364;49.084;9.978;2023-01-05T07:36:56;5.22;;;1.48;;
25437;SDS011;13364;49.084;9.978;2023-01-05T07:39:23;5.78;;;1.90;;
25437;SDS011;13364;49.084;9.978;2023-01-05T07:41:50;7.82;;;1.25;;
25437;SDS011;13364;49.084;9.978;2023-01-05T07:44:17;5.72;;;1.23;;
25437;SDS011;13364;49.084;9.978;2023-01-05T07:46:44;10.07;;;1.50;;
25437;SDS011;13364;49.084;9.978;2023-01-05T07:49:11;9.57;;;1.75;;
25437;SDS011;13364;49.084;9.978;2023-01-05T07:51:38;8.45;;;1.88;;
25437;SDS011;13364;49.084;9.978;2023-01-05T07:54:05;5.40;;;1.52;;
25437;SDS011;13364;49.084;9.978;2023-01-05T07:56:32;4.75;;;1.13;;
25437;SDS011;13364;49.084;9.978;2023-01-05T07:58:59;7.43;;;1.80;;
25437;SDS011;13364;49.084;9.978;2023-01-05T08:01:26;10.10;;;2.00;;
25437;SDS011;13364;49.084;9.978;2023-01-05T08:03:53;6.57;;;2.00;;
25437;SDS011;13364;49.084;9.978;2023-01-05T08:06:20;6.57;;;1.73;;
25437;SDS011;13364;49.084;9.978;2023-01-05T08:08:47;9.63;;;2.08;;
25437;SDS011;13364;49.084;9.978;2023-01-05T08:11:15;7.47;;;1.67;;
25437;SDS011;13364;49.084;9.978;2023-01-05T08:13:43;7.82;;;1.50;;
25437;SDS011;13364;49.084;9.978;2023-01-05T08:16:26;7.30;;;1.98;;
25437;SDS011;13364;49.084;9.978;2023-01-05T08:18:57;9.55;;;1.92;;
25437;SDS011;13364;49.084;9.978;2023-01-05T08:21:25;10.25;;;2.00;;
25437;SDS011;13364;49.084;9.978;2023-01-05T08:23:52;11.65;;;2.15;;
25437;SDS011;13364;49.084;9.978;2023-01-05T08:26:21;8.32;;;1.48;;
25437;SDS011;13364;49.084;9.978;2023-01-05T08:28:49;9.23;;;1.80;;
25437;SDS011;13364;49.084;9.978;2023-01-05T08:31:24;9.68;;;2.33;;
25437;SDS011;13364;49.084;9.978;2023-01-05T08:33:54;7.50;;;1.73;;
25437;SDS011;13364;49.084;9.978;2023-01-05T08:36:25;7.28;;;1.75;;
25437;SDS011;13364;49.084;9.978;2023-01-05T08:38:53;5.63;;;1.08;;
25437;SDS011;13364;49.084;9.978;2023-01-05T08:41:24;8.10;;;1.33;;
25437;SDS011;13364;49.084;9.978;2023-01-05T08:44:03;9.15;;;1.73;;
25437;SDS011;13364;49.084;9.978;2023-01-05T08:49:00;11.00;;;2.25;;
25437;SDS011;13364;49.084;9.978;2023-01-05T08:51:29;5.85;;;2.25;;
25437;SDS011;13364;49.084;9.978;2023-01-05T08:53:56;7.80;;;1.65;;
25437;SDS011;13364;49.084;9.978;2023-01-05T08:56:24;7.18;;;1.38;;
25437;SDS011;13364;49.084;9.978;2023-01-05T08:58:54;10.10;;;2.15;;
25437;SDS011;13364;49.084;9.978;2023-01-05T09:01:21;11.30;;;1.92;;
25437;SDS011;13364;49.084;9.978;2023-01-05T09:03:48;6.72;;;2.13;;
25437;SDS011;13364;49.084;9.978;2023-01-05T09:06:15;4.07;;;1.38;;
25437;SDS011;13364;49.084;9.978;2023-01-05T09:08:42;9.20;;;1.33;;
25437;SDS011;13364;49.084;9.978;2023-01-05T09:11:12;3.25;;;1.60;;
25437;SDS011;13364;49.084;9.978;2023-01-05T09:13:41;6.55;;;1.63;;
25437;SDS011;13364;49.084;9.978;2023-01-05T09:16:12;7.60;;;2.05;;
25437;SDS011;13364;49.084;9.978;2023-01-05T09:22:04;7.63;;;1.60;;
25437;SDS011;13364;49.084;9.978;2023-01-05T09:24:31;12.40;;;2.47;;
25437;SDS011;13364;49.084;9.978;2023-01-05T09:26:59;8.93;;;1.63;;
25437;SDS011;13364;49.084;9.978;2023-01-05T09:32:10;9.27;;;1.60;;
25437;SDS011;13364;49.084;9.978;2023-01-05T09:34:37;12.40;;;1.77;;
25437;SDS011;13364;49.084;9.978;2023-01-05T09:37:04;7.25;;;1.90;;
25437;SDS011;13364;49.084;9.978;2023-01-05T09:39:31;7.05;;;1.40;;
25437;SDS011;13364;49.084;9.978;2023-01-05T09:41:59;7.97;;;1.50;;
25437;SDS011;13364;49.084;9.978;2023-01-05T09:46:59;8.55;;;2.00;;
25437;SDS011;13364;49.084;9.978;2023-01-05T09:52:26;11.35;;;2.10;;
25437;SDS011;13364;49.084;9.978;2023-01-05T09:55:14;12.23;;;2.17;;
25437;SDS011;13364;49.084;9.978;2023-01-05T09:57:52;6.70;;;1.65;;
25437;SDS011;13364;49.084;9.978;2023-01-05T10:00:24;12.50;;;3.30;;
25437;SDS011;13364;49.084;9.978;2023-01-05T10:03:02;6.75;;;1.65;;
25437;SDS011;13364;49.084;9.978;2023-01-05T10:05:44;9.00;;;1.67;;
25437;SDS011;13364;49.084;9.978;2023-01-05T10:10:47;9.80;;;1.55;;
25437;SDS011;13364;49.084;9.978;2023-01-05T10:13:44;8.65;;;1.98;;
25437;SDS011;13364;49.084;9.978;2023-01-05T10:16:48;12.32;;;2.22;;
25437;SDS011;13364;49.084;9.978;2023-01-05T10:19:35;6.53;;;2.33;;
25437;SDS011;13364;49.084;9.978;2023-01-05T10:28:20;9.82;;;2.45;;
25437;SDS011;13364;49.084;9.978;2023-01-05T10:31:12;11.32;;;2.97;;
25437;SDS011;13364;49.084;9.978;2023-01-05T10:33:49;7.80;;;1.90;;
25437;SDS011;13364;49.084;9.978;2023-01-05T10:39:17;9.27;;;2.47;;
25437;SDS011;13364;49.084;9.978;2023-01-05T10:46:11;11.27;;;2.65;;
25437;SDS011;13364;49.084;9.978;2023-01-05T10:49:01;8.38;;;1.92;;
25437;SDS011;13364;49.084;9.978;2023-01-05T10:51:32;9.18;;;1.75;;
25437;SDS011;13364;49.084;9.978;2023-01-05T10:53:59;10.23;;;2.00;;
25437;SDS011;13364;49.084;9.978;2023-01-05T10:56:28;10.70;;;1.90;;
25437;SDS011;13364;49.084;9.978;2023-01-05T10:59:18;12.27;;;1.83;;
25437;SDS011;13364;49.084;9.978;2023-01-05T11:01:45;8.57;;;1.52;;
25437;SDS011;13364;49.084;9.978;2023-01-05T11:07:03;6.75;;;1.70;;
25437;SDS011;13364;49.084;9.978;2023-01-05T11:09:32;10.05;;;2.13;;
25437;SDS011;13364;49.084;9.978;2023-01-05T11:12:04;12.00;;;1.85;;
25437;SDS011;13364;49.084;9.978;2023-01-05T11:14:32;9.43;;;1.80;;
25437;SDS011;13364;49.084;9.978;2023-01-05T11:17:05;11.85;;;2.25;;
25437;SDS011;13364;49.084;9.978;2023-01-05T11:19:51;9.32;;;2.50;;
25437;SDS011;13364;49.084;9.978;2023-01-05T11:27:45;10.95;;;1.85;;
25437;SDS011;13364;49.084;9.978;2023-01-05T11:30:22;9.60;;;1.80;;
25437;SDS011;13364;49.084;9.978;2023-01-05T11:32:50;10.30;;;2.40;;
25437;SDS011;13364;49.084;9.978;2023-01-05T11:35:27;11.20;;;1.75;;
25437;SDS011;13364;49.084;9.978;2023-01-05T11:38:03;6.95;;;2.00;;
25437;SDS011;13364;49.084;9.978;2023-01-05T11:40:31;5.65;;;1.80;;
25437;SDS011;13364;49.084;9.978;2023-01-05T11:43:08;14.80;;;2.40;;
25437;SDS011;13364;49.084;9.978;2023-01-05T11:45:51;12.00;;;2.30;;
25437;SDS011;13364;49.084;9.978;2023-01-05T11:48:28;9.18;;;1.65;;
25437;SDS011;13364;49.084;9.978;2023-01-05T11:50:57;5.18;;;1.90;;
25437;SDS011;13364;49.084;9.978;2023-01-05T11:53:36;14.18;;;2.33;;
25437;SDS011;13364;49.084;9.978;2023-01-05T11:58:34;14.27;;;2.28;;
25437;SDS011;13364;49.084;9.978;2023-01-05T12:09:31;10.90;;;3.55;;
25437;SDS011;13364;49.084;9.978;2023-01-05T12:32:09;16.10;;;2.88;;
25437;SDS011;13364;49.084;9.978;2023-01-05T12:43:59;8.25;;;1.90;;
25437;SDS011;13364;49.084;9.978;2023-01-05T12:59:43;11.38;;;2.47;;
25437;SDS011;13364;49.084;9.978;2023-01-05T13:06:39;11.40;;;2.33;;
25437;SDS011;13364;49.084;9.978;2023-01-05T13:09:16;11.02;;;2.03;;
25437;SDS011;13364;49.084;9.978;2023-01-05T13:11:54;6.47;;;2.05;;
25437;SDS011;13364;49.084;9.978;2023-01-05T13:17:06;8.57;;;2.13;;
25437;SDS011;13364;49.084;9.978;2023-01-05T13:22:47;9.48;;;2.60;;
25437;SDS011;13364;49.084;9.978;2023-01-05T13:25:17;9.02;;;2.45;;
25437;SDS011;13364;49.084;9.978;2023-01-05T13:27:45;9.55;;;2.33;;
25437;SDS011;13364;49.084;9.978;2023-01-05T13:30:19;10.25;;;2.20;;
25437;SDS011;13364;49.084;9.978;2023-01-05T13:33:14;6.68;;;1.88;;
25437;SDS011;13364;49.084;9.978;2023-01-05T13:38:50;13.60;;;2.95;;
25437;SDS011;13364;49.084;9.978;2023-01-05T13:55:02;11.67;;;2.17;;
25437;SDS011;13364;49.084;9.978;2023-01-05T13:57:40;7.25;;;2.60;;
25437;SDS011;13364;49.084;9.978;2023-01-05T14:06:01;6.03;;;2.08;;
25437;SDS011;13364;49.084;9.978;2023-01-05T14:08:35;12.30;;;2.65;;
25437;SDS011;13364;49.084;9.978;2023-01-05T14:11:10;14.25;;;3.00;;
25437;SDS011;13364;49.084;9.978;2023-01-05T14:13:49;11.15;;;3.03;;
25437;SDS011;13364;49.084;9.978;2023-01-05T14:19:11;16.08;;;2.70;;
25437;SDS011;13364;49.084;9.978;2023-01-05T14:27:08;10.60;;;2.13;;
25437;SDS011;13364;49.084;9.978;2023-01-05T14:32:35;11.30;;;2.90;;
25437;SDS011;13364;49.084;9.978;2023-01-05T14:37:42;17.15;;;2.83;;
25437;SDS011;13364;49.084;9.978;2023-01-05T14:43:27;10.02;;;2.65;;
25437;SDS011;13364;49.084;9.978;2023-01-05T14:46:10;14.60;;;2.10;;
25437;SDS011;13364;49.084;9.978;2023-01-05T14:51:28;15.90;;;2.88;;
25437;SDS011;13364;49.084;9.978;2023-01-05T14:54:08;13.05;;;2.60;;
25437;SDS011;13364;49.084;9.978;2023-01-05T14:56:36;10.85;;;2.50;;
25437;SDS011;13364;49.084;9.978;2023-01-05T15:01:47;15.38;;;2.80;;
25437;SDS011;13364;49.084;9.978;2023-01-05T15:04:30;13.07;;;2.80;;
25437;SDS011;13364;49.084;9.978;2023-01-05T15:07:13;5.78;;;2.15;;
25437;SDS011;13364;49.084;9.978;2023-01-05T15:15:46;14.50;;;2.65;;
25437;SDS011;13364;49.084;9.978;2023-01-05T15:21:14;14.38;;;2.35;;
25437;SDS011;13364;49.084;9.978;2023-01-05T15:29:41;10.85;;;2.55;;
25437;SDS011;13364;49.084;9.978;2023-01-05T15:35:14;12.18;;;2.88;;
25437;SDS011;13364;49.084;9.978;2023-01-05T15:38:18;16.23;;;3.25;;
25437;SDS011;13364;49.084;9.978;2023-01-05T15:43:25;14.65;;;2.80;;
25437;SDS011;13364;49.084;9.978;2023-01-05T15:45:52;12.82;;;3.17;;
25437;SDS011;13364;49.084;9.978;2023-01-05T15:48:25;11.27;;;2.58;;
25437;SDS011;13364;49.084;9.978;2023-01-05T15:51:00;7.85;;;3.05;;
25437;SDS011;13364;49.084;9.978;2023-01-05T15:53:29;16.90;;;2.55;;
25437;SDS011;13364;49.084;9.978;2023-01-05T15:55:58;13.52;;;3.13;;
25437;SDS011;13364;49.084;9.978;2023-01-05T15:58:27;14.25;;;2.70;;
25437;SDS011;13364;49.084;9.978;2023-01-05T16:03:40;13.48;;;2.97;;
25437;SDS011;13364;49.084;9.978;2023-01-05T16:09:22;13.90;;;2.70;;
25437;SDS011;13364;49.084;9.978;2023-01-05T16:14:42;15.50;;;2.70;;
25437;SDS011;13364;49.084;9.978;2023-01-05T16:19:46;18.38;;;2.97;;
25437;SDS011;13364;49.084;9.978;2023-01-05T16:22:19;15.25;;;3.20;;
25437;SDS011;13364;49.084;9.978;2023-01-05T16:24:53;10.32;;;2.53;;
25437;SDS011;13364;49.084;9.978;2023-01-05T16:27:28;13.77;;;2.72;;
25437;SDS011;13364;49.084;9.978;2023-01-05T16:30:11;12.80;;;2.63;;
25437;SDS011;13364;49.084;9.978;2023-01-05T16:33:03;15.85;;;2.90;;
25437;SDS011;13364;49.084;9.978;2023-01-05T16:35:47;11.40;;;2.65;;
25437;SDS011;13364;49.084;9.978;2023-01-05T16:41:34;9.30;;;2.85;;
25437;SDS011;13364;49.084;9.978;2023-01-05T16:44:21;20.17;;;3.47;;
25437;SDS011;13364;49.084;9.978;2023-01-05T16:46:48;15.05;;;3.20;;
25437;SDS011;13364;49.084;9.978;2023-01-05T16:53:47;17.88;;;2.40;;
25437;SDS011;13364;49.084;9.978;2023-01-05T17:01:59;15.68;;;2.72;;
25437;SDS011;13364;49.084;9.978;2023-01-05T17:04:27;19.02;;;3.78;;
25437;SDS011;13364;49.084;9.978;2023-01-05T17:06:54;22.38;;;3.85;;
25437;SDS011;13364;49.084;9.978;2023-01-05T17:09:25;15.73;;;3.20;;
25437;SDS011;13364;49.084;9.978;2023-01-05T17:11:59;15.40;;;3.00;;
25437;SDS011;13364;49.084;9.978;2023-01-05T17:14:27;17.23;;;3.20;;
25437;SDS011;13364;49.084;9.978;2023-01-05T17:16:55;8.98;;;2.70;;
25437;SDS011;13364;49.084;9.978;2023-01-05T17:19:25;13.23;;;3.08;;
25437;SDS011;13364;49.084;9.978;2023-01-05T17:21:54;14.65;;;2.60;;
25437;SDS011;13364;49.084;9.978;2023-01-05T17:24:26;17.83;;;2.97;;
25437;SDS011;13364;49.084;9.978;2023-01-05T17:26:57;14.20;;;3.08;;
25437;SDS011;13364;49.084;9.978;2023-01-05T17:29:30;15.30;;;2.65;;
25437;SDS011;13364;49.084;9.978;2023-01-05T17:32:00;10.27;;;2.60;;
25437;SDS011;13364;49.084;9.978;2023-01-05T17:34:28;18.90;;;3.10;;
25437;SDS011;13364;49.084;9.978;2023-01-05T17:36:58;17.92;;;3.05;;
25437;SDS011;13364;49.084;9.978;2023-01-05T17:39:27;12.48;;;2.60;;
25437;SDS011;13364;49.084;9.978;2023-01-05T17:41:59;15.65;;;3.42;;
25437;SDS011;13364;49.084;9.978;2023-01-05T17:44:49;6.85;;;2.28;;
25437;SDS011;13364;49.084;9.978;2023-01-05T17:47:17;13.27;;;2.83;;
25437;SDS011;13364;49.084;9.978;2023-01-05T17:49:47;11.52;;;3.13;;
25437;SDS011;13364;49.084;9.978;2023-01-05T17:52:14;13.35;;;3.05;;
25437;SDS011;13364;49.084;9.978;2023-01-05T17:54:50;10.63;;;2.88;;
25437;SDS011;13364;49.084;9.978;2023-01-05T17:57:21;13.85;;;3.00;;
25437;SDS011;13364;49.084;9.978;2023-01-05T17:59:51;18.05;;;2.92;;
25437;SDS011;13364;49.084;9.978;2023-01-05T18:02:24;11.32;;;2.97;;
25437;SDS011;13364;49.084;9.978;2023-01-05T18:05:02;10.48;;;3.22;;
25437;SDS011;13364;49.084;9.978;2023-01-05T18:07:35;14.55;;;3.00;;
25437;SDS011;13364;49.084;9.978;2023-01-05T18:10:06;16.30;;;3.13;;
25437;SDS011;13364;49.084;9.978;2023-01-05T18:12:35;15.90;;;2.83;;
25437;SDS011;13364;49.084;9.978;2023-01-05T18:15:15;11.20;;;2.58;;
25437;SDS011;13364;49.084;9.978;2023-01-05T18:20:09;20.10;;;3.88;;
25437;SDS011;13364;49.084;9.978;2023-01-05T18:22:40;12.35;;;2.85;;
25437;SDS011;13364;49.084;9.978;2023-01-05T18:25:07;17.73;;;2.97;;
25437;SDS011;13364;49.084;9.978;2023-01-05T18:27:34;14.00;;;3.03;;
25437;SDS011;13364;49.084;9.978;2023-01-05T18:30:02;9.93;;;2.90;;
25437;SDS011;13364;49.084;9.978;2023-01-05T18:32:30;12.67;;;2.83;;
25437;SDS011;13364;49.084;9.978;2023-01-05T18:34:57;16.58;;;3.05;;
25437;SDS011;13364;49.084;9.978;2023-01-05T18:37:24;13.68;;;2.75;;
25437;SDS011;13364;49.084;9.978;2023-01-05T18:39:52;9.48;;;2.67;;
25437;SDS011;13364;49.084;9.978;2023-01-05T18:42:25;16.48;;;3.10;;
25437;SDS011;13364;49.084;9.978;2023-01-05T18:44:52;10.52;;;3.05;;
25437;SDS011;13364;49.084;9.978;2023-01-05T18:47:19;12.50;;;3.38;;
25437;SDS011;13364;49.084;9.978;2023-01-05T18:53:20;12.50;;;3.35;;
25437;SDS011;13364;49.084;9.978;2023-01-05T18:55:48;11.43;;;3.13;;
25437;SDS011;13364;49.084;9.978;2023-01-05T18:58:15;16.08;;;2.65;;
25437;SDS011;13364;49.084;9.978;2023-01-05T19:04:05;15.20;;;2.70;;
25437;SDS011;13364;49.084;9.978;2023-01-05T19:06:32;13.77;;;3.63;;
25437;SDS011;13364;49.084;9.978;2023-01-05T19:09:00;12.18;;;3.65;;
25437;SDS011;13364;49.084;9.978;2023-01-05T19:11:29;19.95;;;3.42;;
25437;SDS011;13364;49.084;9.978;2023-01-05T19:13:58;16.25;;;3.13;;
25437;SDS011;13364;49.084;9.978;2023-01-05T19:16:28;17.58;;;3.28;;
25437;SDS011;13364;49.084;9.978;2023-01-05T19:18:57;15.10;;;3.60;;
25437;SDS011;13364;49.084;9.978;2023-01-05T19:21:29;13.20;;;3.10;;
25437;SDS011;13364;49.084;9.978;2023-01-05T19:23:59;14.25;;;2.97;;
25437;SDS011;13364;49.084;9.978;2023-01-05T19:26:27;13.02;;;3.63;;